Cooperstown, Illinois
Current Conditions -  °F | °C
As of 1:55 PM on Thursday 18 Dec 2014 (Local Time) from KPPQ Reporting Station
Light Rain Light Rain  
Wind Chill: 30°   Ceiling: 1000
Heat Index: 30°   Visibility: 10mi
Dew Point: 26°   Wind: 0mph
Humidity: 85%   Direction: NA
Pressure: 30.24"   Gusts: NA
Location:  39.9985°N, 90.6925°W
Report Text: KPPQ 181955Z AUTO 00000KT 10SM -RA OVC010 M01/M03 A3024 RMK AO2 T10121035
Loading
Personal Weather Stations






























Interactive Weather Map New forecast layout! Learn more

10-Day Weather Forecast

Advertisements
Track Severe Weather on mobile